sensor_id;sensor_type;location;lat;lon;timestamp;P1;durP1;ratioP1;P2;durP2;ratioP2
49610;SDS011;35515;48.766;9.176;2023-01-10T00:00:19;2.00;;;1.30;;
49610;SDS011;35515;48.766;9.176;2023-01-10T00:02:47;2.13;;;1.10;;
49610;SDS011;35515;48.766;9.176;2023-01-10T00:05:13;1.33;;;1.10;;
49610;SDS011;35515;48.766;9.176;2023-01-10T00:07:41;2.95;;;1.00;;
49610;SDS011;35515;48.766;9.176;2023-01-10T00:10:07;1.23;;;0.90;;
49610;SDS011;35515;48.766;9.176;2023-01-10T00:12:35;1.90;;;1.15;;
49610;SDS011;35515;48.766;9.176;2023-01-10T00:15:21;1.55;;;1.00;;
49610;SDS011;35515;48.766;9.176;2023-01-10T00:17:47;0.95;;;0.88;;
49610;SDS011;35515;48.766;9.176;2023-01-10T00:20:14;2.13;;;1.20;;
49610;SDS011;35515;48.766;9.176;2023-01-10T00:22:41;1.13;;;0.95;;
49610;SDS011;35515;48.766;9.176;2023-01-10T00:25:09;3.25;;;1.20;;
49610;SDS011;35515;48.766;9.176;2023-01-10T00:27:35;1.35;;;1.20;;
49610;SDS011;35515;48.766;9.176;2023-01-10T00:30:02;1.20;;;0.98;;
49610;SDS011;35515;48.766;9.176;2023-01-10T00:32:39;3.38;;;1.25;;
49610;SDS011;35515;48.766;9.176;2023-01-10T00:35:06;1.42;;;1.17;;
49610;SDS011;35515;48.766;9.176;2023-01-10T00:37:35;2.10;;;1.15;;
49610;SDS011;35515;48.766;9.176;2023-01-10T00:40:02;1.27;;;1.10;;
49610;SDS011;35515;48.766;9.176;2023-01-10T00:42:31;1.48;;;0.95;;
49610;SDS011;35515;48.766;9.176;2023-01-10T00:45:15;1.20;;;1.02;;
49610;SDS011;35515;48.766;9.176;2023-01-10T00:47:45;1.75;;;1.10;;
49610;SDS011;35515;48.766;9.176;2023-01-10T00:50:11;2.53;;;1.17;;
49610;SDS011;35515;48.766;9.176;2023-01-10T00:52:38;1.75;;;1.10;;
49610;SDS011;35515;48.766;9.176;2023-01-10T00:55:05;1.25;;;1.00;;
49610;SDS011;35515;48.766;9.176;2023-01-10T00:57:32;2.35;;;1.15;;
49610;SDS011;35515;48.766;9.176;2023-01-10T00:59:59;2.00;;;1.30;;
49610;SDS011;35515;48.766;9.176;2023-01-10T01:02:25;2.13;;;1.33;;
49610;SDS011;35515;48.766;9.176;2023-01-10T01:04:53;1.67;;;1.25;;
49610;SDS011;35515;48.766;9.176;2023-01-10T01:07:19;2.10;;;1.20;;
49610;SDS011;35515;48.766;9.176;2023-01-10T01:09:46;1.83;;;1.30;;
49610;SDS011;35515;48.766;9.176;2023-01-10T01:12:30;1.35;;;1.10;;
49610;SDS011;35515;48.766;9.176;2023-01-10T01:14:56;2.28;;;1.00;;
49610;SDS011;35515;48.766;9.176;2023-01-10T01:17:23;1.75;;;1.40;;
49610;SDS011;35515;48.766;9.176;2023-01-10T01:19:49;3.53;;;1.35;;
49610;SDS011;35515;48.766;9.176;2023-01-10T01:22:17;2.50;;;1.50;;
49610;SDS011;35515;48.766;9.176;2023-01-10T01:24:44;1.98;;;1.33;;
49610;SDS011;35515;48.766;9.176;2023-01-10T01:27:11;1.40;;;1.20;;
49610;SDS011;35515;48.766;9.176;2023-01-10T01:29:37;1.95;;;1.45;;
49610;SDS011;35515;48.766;9.176;2023-01-10T01:32:04;1.48;;;1.20;;
49610;SDS011;35515;48.766;9.176;2023-01-10T01:34:30;1.77;;;1.23;;
49610;SDS011;35515;48.766;9.176;2023-01-10T01:36:57;1.15;;;1.05;;
49610;SDS011;35515;48.766;9.176;2023-01-10T01:39:25;1.27;;;1.17;;
49610;SDS011;35515;48.766;9.176;2023-01-10T01:41:51;1.73;;;1.23;;
49610;SDS011;35515;48.766;9.176;2023-01-10T01:44:28;0.95;;;0.90;;
49610;SDS011;35515;48.766;9.176;2023-01-10T01:47:04;1.40;;;1.00;;
49610;SDS011;35515;48.766;9.176;2023-01-10T01:49:32;1.15;;;0.90;;
49610;SDS011;35515;48.766;9.176;2023-01-10T01:52:04;1.08;;;0.98;;
49610;SDS011;35515;48.766;9.176;2023-01-10T01:54:35;1.10;;;1.00;;
49610;SDS011;35515;48.766;9.176;2023-01-10T01:57:03;0.80;;;0.80;;
49610;SDS011;35515;48.766;9.176;2023-01-10T01:59:34;1.20;;;1.10;;
49610;SDS011;35515;48.766;9.176;2023-01-10T02:02:04;0.82;;;0.80;;
49610;SDS011;35515;48.766;9.176;2023-01-10T02:04:36;1.25;;;1.00;;
49610;SDS011;35515;48.766;9.176;2023-01-10T02:07:07;1.00;;;0.90;;
49610;SDS011;35515;48.766;9.176;2023-01-10T02:09:38;0.98;;;0.98;;
49610;SDS011;35515;48.766;9.176;2023-01-10T02:12:08;1.40;;;1.23;;
49610;SDS011;35515;48.766;9.176;2023-01-10T02:14:36;2.38;;;1.08;;
49610;SDS011;35515;48.766;9.176;2023-01-10T02:17:04;1.80;;;1.00;;
49610;SDS011;35515;48.766;9.176;2023-01-10T02:19:36;1.48;;;1.10;;
49610;SDS011;35515;48.766;9.176;2023-01-10T02:22:38;0.80;;;0.80;;
49610;SDS011;35515;48.766;9.176;2023-01-10T02:25:31;1.45;;;1.00;;
49610;SDS011;35515;48.766;9.176;2023-01-10T02:28:23;1.63;;;1.02;;
49610;SDS011;35515;48.766;9.176;2023-01-10T02:31:15;1.73;;;1.20;;
49610;SDS011;35515;48.766;9.176;2023-01-10T02:33:56;1.35;;;1.20;;
49610;SDS011;35515;48.766;9.176;2023-01-10T02:36:33;1.75;;;1.25;;
49610;SDS011;35515;48.766;9.176;2023-01-10T02:39:06;1.58;;;1.30;;
49610;SDS011;35515;48.766;9.176;2023-01-10T02:41:49;1.98;;;1.23;;
49610;SDS011;35515;48.766;9.176;2023-01-10T02:44:23;2.35;;;1.63;;
49610;SDS011;35515;48.766;9.176;2023-01-10T02:46:56;1.70;;;1.33;;
49610;SDS011;35515;48.766;9.176;2023-01-10T02:49:24;1.80;;;1.33;;
49610;SDS011;35515;48.766;9.176;2023-01-10T02:51:50;2.65;;;1.38;;
49610;SDS011;35515;48.766;9.176;2023-01-10T02:54:17;2.10;;;1.10;;
49610;SDS011;35515;48.766;9.176;2023-01-10T02:59:55;1.65;;;1.20;;
49610;SDS011;35515;48.766;9.176;2023-01-10T03:02:36;4.50;;;1.50;;
49610;SDS011;35515;48.766;9.176;2023-01-10T03:05:18;2.03;;;1.40;;
49610;SDS011;35515;48.766;9.176;2023-01-10T03:07:55;1.80;;;1.40;;
49610;SDS011;35515;48.766;9.176;2023-01-10T03:10:30;3.08;;;1.50;;
49610;SDS011;35515;48.766;9.176;2023-01-10T03:13:04;2.45;;;0.93;;
49610;SDS011;35515;48.766;9.176;2023-01-10T03:15:36;1.90;;;1.48;;
49610;SDS011;35515;48.766;9.176;2023-01-10T03:18:05;2.05;;;1.50;;
49610;SDS011;35515;48.766;9.176;2023-01-10T03:20:36;2.47;;;1.60;;
49610;SDS011;35515;48.766;9.176;2023-01-10T03:23:07;2.80;;;1.77;;
49610;SDS011;35515;48.766;9.176;2023-01-10T03:25:36;2.78;;;1.80;;
49610;SDS011;35515;48.766;9.176;2023-01-10T03:28:06;2.80;;;1.80;;
49610;SDS011;35515;48.766;9.176;2023-01-10T03:30:38;5.60;;;2.20;;
49610;SDS011;35515;48.766;9.176;2023-01-10T03:33:09;6.30;;;2.10;;
49610;SDS011;35515;48.766;9.176;2023-01-10T03:35:50;7.60;;;2.25;;
49610;SDS011;35515;48.766;9.176;2023-01-10T03:38:25;4.38;;;2.30;;
49610;SDS011;35515;48.766;9.176;2023-01-10T03:40:57;5.43;;;2.55;;
49610;SDS011;35515;48.766;9.176;2023-01-10T03:43:31;4.57;;;2.10;;
49610;SDS011;35515;48.766;9.176;2023-01-10T03:46:24;5.55;;;2.30;;
49610;SDS011;35515;48.766;9.176;2023-01-10T03:48:56;4.55;;;2.42;;
49610;SDS011;35515;48.766;9.176;2023-01-10T03:51:26;3.83;;;2.20;;
49610;SDS011;35515;48.766;9.176;2023-01-10T03:53:53;6.90;;;2.60;;
49610;SDS011;35515;48.766;9.176;2023-01-10T03:56:20;4.65;;;2.20;;
49610;SDS011;35515;48.766;9.176;2023-01-10T03:58:46;3.70;;;2.20;;
49610;SDS011;35515;48.766;9.176;2023-01-10T04:01:13;3.90;;;2.60;;
49610;SDS011;35515;48.766;9.176;2023-01-10T04:03:41;5.95;;;2.15;;
49610;SDS011;35515;48.766;9.176;2023-01-10T04:06:07;6.60;;;2.20;;
49610;SDS011;35515;48.766;9.176;2023-01-10T04:08:35;2.40;;;1.90;;
49610;SDS011;35515;48.766;9.176;2023-01-10T04:11:02;4.57;;;2.50;;
49610;SDS011;35515;48.766;9.176;2023-01-10T04:13:29;3.63;;;2.05;;
49610;SDS011;35515;48.766;9.176;2023-01-10T04:15:57;5.40;;;2.00;;
49610;SDS011;35515;48.766;9.176;2023-01-10T04:18:24;3.72;;;1.85;;
49610;SDS011;35515;48.766;9.176;2023-01-10T04:20:51;5.53;;;2.00;;
49610;SDS011;35515;48.766;9.176;2023-01-10T04:23:17;4.07;;;2.10;;
49610;SDS011;35515;48.766;9.176;2023-01-10T04:25:46;3.05;;;1.80;;
49610;SDS011;35515;48.766;9.176;2023-01-10T04:28:13;3.05;;;2.30;;
49610;SDS011;35515;48.766;9.176;2023-01-10T04:30:39;3.50;;;1.92;;
49610;SDS011;35515;48.766;9.176;2023-01-10T04:33:06;5.03;;;2.35;;
49610;SDS011;35515;48.766;9.176;2023-01-10T04:35:34;4.93;;;2.20;;
49610;SDS011;35515;48.766;9.176;2023-01-10T04:38:00;2.80;;;1.70;;
49610;SDS011;35515;48.766;9.176;2023-01-10T04:40:27;4.10;;;2.05;;
49610;SDS011;35515;48.766;9.176;2023-01-10T04:42:55;5.72;;;2.20;;
49610;SDS011;35515;48.766;9.176;2023-01-10T04:45:21;5.80;;;2.70;;
49610;SDS011;35515;48.766;9.176;2023-01-10T04:47:48;4.85;;;2.40;;
49610;SDS011;35515;48.766;9.176;2023-01-10T04:50:16;5.63;;;2.13;;
49610;SDS011;35515;48.766;9.176;2023-01-10T04:52:42;4.05;;;2.20;;
49610;SDS011;35515;48.766;9.176;2023-01-10T04:55:09;3.65;;;1.80;;
49610;SDS011;35515;48.766;9.176;2023-01-10T04:57:35;6.15;;;2.28;;
49610;SDS011;35515;48.766;9.176;2023-01-10T05:00:04;5.68;;;2.22;;
49610;SDS011;35515;48.766;9.176;2023-01-10T05:02:31;5.82;;;2.40;;
49610;SDS011;35515;48.766;9.176;2023-01-10T05:04:58;5.10;;;2.33;;
49610;SDS011;35515;48.766;9.176;2023-01-10T05:07:24;7.80;;;2.03;;
49610;SDS011;35515;48.766;9.176;2023-01-10T05:09:51;4.72;;;2.20;;
49610;SDS011;35515;48.766;9.176;2023-01-10T05:12:18;4.90;;;2.25;;
49610;SDS011;35515;48.766;9.176;2023-01-10T05:14:44;4.63;;;2.15;;
49610;SDS011;35515;48.766;9.176;2023-01-10T05:17:12;5.75;;;2.63;;
49610;SDS011;35515;48.766;9.176;2023-01-10T05:19:38;10.23;;;2.63;;
49610;SDS011;35515;48.766;9.176;2023-01-10T05:22:05;6.25;;;2.40;;
49610;SDS011;35515;48.766;9.176;2023-01-10T05:24:31;8.75;;;2.80;;
49610;SDS011;35515;48.766;9.176;2023-01-10T05:26:58;5.57;;;2.63;;
49610;SDS011;35515;48.766;9.176;2023-01-10T05:29:24;5.63;;;2.38;;
49610;SDS011;35515;48.766;9.176;2023-01-10T05:31:51;7.15;;;2.88;;
49610;SDS011;35515;48.766;9.176;2023-01-10T05:34:19;9.82;;;3.15;;
49610;SDS011;35515;48.766;9.176;2023-01-10T05:36:46;5.53;;;2.33;;
49610;SDS011;35515;48.766;9.176;2023-01-10T05:39:12;5.47;;;2.55;;
49610;SDS011;35515;48.766;9.176;2023-01-10T05:41:39;10.45;;;3.15;;
49610;SDS011;35515;48.766;9.176;2023-01-10T05:44:05;9.50;;;2.95;;
49610;SDS011;35515;48.766;9.176;2023-01-10T05:46:32;8.70;;;3.40;;
49610;SDS011;35515;48.766;9.176;2023-01-10T05:48:58;6.97;;;3.00;;
49610;SDS011;35515;48.766;9.176;2023-01-10T05:51:26;6.35;;;2.67;;
49610;SDS011;35515;48.766;9.176;2023-01-10T05:53:53;11.07;;;3.80;;
49610;SDS011;35515;48.766;9.176;2023-01-10T05:56:19;7.97;;;2.70;;
49610;SDS011;35515;48.766;9.176;2023-01-10T05:58:46;9.93;;;2.58;;
49610;SDS011;35515;48.766;9.176;2023-01-10T06:01:12;9.32;;;3.53;;
49610;SDS011;35515;48.766;9.176;2023-01-10T06:03:39;11.57;;;3.58;;
49610;SDS011;35515;48.766;9.176;2023-01-10T06:06:05;8.70;;;2.90;;
49610;SDS011;35515;48.766;9.176;2023-01-10T06:08:34;9.77;;;2.80;;
49610;SDS011;35515;48.766;9.176;2023-01-10T06:11:01;8.38;;;2.95;;
49610;SDS011;35515;48.766;9.176;2023-01-10T06:13:28;9.38;;;3.17;;
49610;SDS011;35515;48.766;9.176;2023-01-10T06:15:54;8.65;;;3.13;;
49610;SDS011;35515;48.766;9.176;2023-01-10T06:18:21;8.57;;;2.97;;
49610;SDS011;35515;48.766;9.176;2023-01-10T06:20:47;6.55;;;2.55;;
49610;SDS011;35515;48.766;9.176;2023-01-10T06:23:14;9.40;;;2.55;;
49610;SDS011;35515;48.766;9.176;2023-01-10T06:25:42;6.72;;;2.60;;
49610;SDS011;35515;48.766;9.176;2023-01-10T06:28:10;7.57;;;2.85;;
49610;SDS011;35515;48.766;9.176;2023-01-10T06:30:39;8.07;;;3.15;;
49610;SDS011;35515;48.766;9.176;2023-01-10T06:33:07;11.43;;;2.70;;
49610;SDS011;35515;48.766;9.176;2023-01-10T06:35:34;6.32;;;2.40;;
49610;SDS011;35515;48.766;9.176;2023-01-10T06:38:01;7.82;;;2.42;;
49610;SDS011;35515;48.766;9.176;2023-01-10T06:40:28;8.27;;;2.70;;
49610;SDS011;35515;48.766;9.176;2023-01-10T06:42:56;8.73;;;2.70;;
49610;SDS011;35515;48.766;9.176;2023-01-10T06:45:23;7.25;;;2.55;;
49610;SDS011;35515;48.766;9.176;2023-01-10T06:47:49;9.90;;;3.00;;
49610;SDS011;35515;48.766;9.176;2023-01-10T06:50:16;7.85;;;3.05;;
49610;SDS011;35515;48.766;9.176;2023-01-10T06:52:42;6.95;;;2.35;;
49610;SDS011;35515;48.766;9.176;2023-01-10T06:55:09;12.10;;;2.72;;
49610;SDS011;35515;48.766;9.176;2023-01-10T06:57:35;6.57;;;2.38;;
49610;SDS011;35515;48.766;9.176;2023-01-10T07:00:05;9.18;;;3.15;;
49610;SDS011;35515;48.766;9.176;2023-01-10T07:02:35;8.82;;;2.60;;
49610;SDS011;35515;48.766;9.176;2023-01-10T07:05:02;9.30;;;2.92;;
49610;SDS011;35515;48.766;9.176;2023-01-10T07:07:29;11.88;;;2.92;;
49610;SDS011;35515;48.766;9.176;2023-01-10T07:09:56;6.07;;;2.45;;
49610;SDS011;35515;48.766;9.176;2023-01-10T07:12:23;7.93;;;2.67;;
49610;SDS011;35515;48.766;9.176;2023-01-10T07:14:50;9.60;;;2.92;;
49610;SDS011;35515;48.766;9.176;2023-01-10T07:17:18;10.98;;;2.80;;
49610;SDS011;35515;48.766;9.176;2023-01-10T07:19:44;8.43;;;2.55;;
49610;SDS011;35515;48.766;9.176;2023-01-10T07:22:11;9.02;;;2.35;;
49610;SDS011;35515;48.766;9.176;2023-01-10T07:24:37;7.07;;;2.78;;
49610;SDS011;35515;48.766;9.176;2023-01-10T07:27:04;5.97;;;2.25;;
49610;SDS011;35515;48.766;9.176;2023-01-10T07:29:30;6.18;;;2.90;;
49610;SDS011;35515;48.766;9.176;2023-01-10T07:31:57;11.45;;;3.55;;
49610;SDS011;35515;48.766;9.176;2023-01-10T07:34:25;8.23;;;2.75;;
49610;SDS011;35515;48.766;9.176;2023-01-10T07:36:51;6.88;;;2.88;;
49610;SDS011;35515;48.766;9.176;2023-01-10T07:39:18;9.38;;;2.65;;
49610;SDS011;35515;48.766;9.176;2023-01-10T07:41:45;11.15;;;3.25;;
49610;SDS011;35515;48.766;9.176;2023-01-10T07:44:12;7.65;;;2.47;;
49610;SDS011;35515;48.766;9.176;2023-01-10T07:46:38;8.20;;;2.65;;
49610;SDS011;35515;48.766;9.176;2023-01-10T07:49:05;5.10;;;2.70;;
49610;SDS011;35515;48.766;9.176;2023-01-10T07:51:33;9.45;;;2.80;;
49610;SDS011;35515;48.766;9.176;2023-01-10T07:53:59;7.72;;;2.30;;
49610;SDS011;35515;48.766;9.176;2023-01-10T07:56:26;9.35;;;3.08;;
49610;SDS011;35515;48.766;9.176;2023-01-10T07:58:52;7.05;;;2.53;;
49610;SDS011;35515;48.766;9.176;2023-01-10T08:01:19;6.88;;;2.28;;
49610;SDS011;35515;48.766;9.176;2023-01-10T08:03:46;6.57;;;2.72;;
49610;SDS011;35515;48.766;9.176;2023-01-10T08:06:13;7.15;;;2.20;;
49610;SDS011;35515;48.766;9.176;2023-01-10T08:08:40;9.68;;;3.17;;
49610;SDS011;35515;48.766;9.176;2023-01-10T08:11:07;6.55;;;2.67;;
49610;SDS011;35515;48.766;9.176;2023-01-10T08:13:33;11.93;;;3.20;;
49610;SDS011;35515;48.766;9.176;2023-01-10T08:16:03;9.43;;;2.80;;
49610;SDS011;35515;48.766;9.176;2023-01-10T08:18:30;8.20;;;3.03;;
49610;SDS011;35515;48.766;9.176;2023-01-10T08:20:56;6.57;;;2.30;;
49610;SDS011;35515;48.766;9.176;2023-01-10T08:23:23;7.38;;;2.38;;
49610;SDS011;35515;48.766;9.176;2023-01-10T08:25:51;6.25;;;2.15;;
49610;SDS011;35515;48.766;9.176;2023-01-10T08:28:18;6.60;;;2.53;;
49610;SDS011;35515;48.766;9.176;2023-01-10T08:30:45;9.70;;;3.22;;
49610;SDS011;35515;48.766;9.176;2023-01-10T08:33:11;7.80;;;2.47;;
49610;SDS011;35515;48.766;9.176;2023-01-10T08:35:38;10.35;;;2.58;;
49610;SDS011;35515;48.766;9.176;2023-01-10T08:38:06;7.25;;;2.83;;
49610;SDS011;35515;48.766;9.176;2023-01-10T08:40:33;7.60;;;2.50;;
49610;SDS011;35515;48.766;9.176;2023-01-10T08:43:02;10.30;;;3.00;;
49610;SDS011;35515;48.766;9.176;2023-01-10T08:45:30;7.10;;;2.70;;
49610;SDS011;35515;48.766;9.176;2023-01-10T08:47:57;7.55;;;2.58;;
49610;SDS011;35515;48.766;9.176;2023-01-10T08:50:24;6.85;;;2.97;;
49610;SDS011;35515;48.766;9.176;2023-01-10T08:52:51;10.48;;;2.97;;
49610;SDS011;35515;48.766;9.176;2023-01-10T08:55:18;7.40;;;3.20;;
49610;SDS011;35515;48.766;9.176;2023-01-10T08:57:45;5.60;;;2.55;;
49610;SDS011;35515;48.766;9.176;2023-01-10T09:00:13;10.48;;;2.45;;
49610;SDS011;35515;48.766;9.176;2023-01-10T09:02:40;9.82;;;2.97;;
49610;SDS011;35515;48.766;9.176;2023-01-10T09:05:07;6.80;;;2.67;;
49610;SDS011;35515;48.766;9.176;2023-01-10T09:07:34;7.07;;;2.88;;
49610;SDS011;35515;48.766;9.176;2023-01-10T09:10:01;8.13;;;2.80;;
49610;SDS011;35515;48.766;9.176;2023-01-10T09:12:27;8.20;;;3.22;;
49610;SDS011;35515;48.766;9.176;2023-01-10T09:15:13;8.90;;;2.80;;
49610;SDS011;35515;48.766;9.176;2023-01-10T09:17:40;7.55;;;3.05;;
49610;SDS011;35515;48.766;9.176;2023-01-10T09:20:07;8.15;;;3.25;;
49610;SDS011;35515;48.766;9.176;2023-01-10T09:22:34;10.80;;;3.05;;
49610;SDS011;35515;48.766;9.176;2023-01-10T09:25:01;9.60;;;3.20;;
49610;SDS011;35515;48.766;9.176;2023-01-10T09:27:28;8.60;;;2.90;;
49610;SDS011;35515;48.766;9.176;2023-01-10T09:29:54;8.60;;;3.08;;
49610;SDS011;35515;48.766;9.176;2023-01-10T09:32:22;7.65;;;3.05;;
49610;SDS011;35515;48.766;9.176;2023-01-10T09:34:49;6.60;;;2.42;;
49610;SDS011;35515;48.766;9.176;2023-01-10T09:37:16;8.93;;;2.80;;
49610;SDS011;35515;48.766;9.176;2023-01-10T09:39:42;10.25;;;2.85;;
49610;SDS011;35515;48.766;9.176;2023-01-10T09:42:21;6.50;;;3.08;;
49610;SDS011;35515;48.766;9.176;2023-01-10T09:44:58;6.95;;;2.80;;
49610;SDS011;35515;48.766;9.176;2023-01-10T09:47:34;6.45;;;3.15;;
49610;SDS011;35515;48.766;9.176;2023-01-10T09:50:09;10.13;;;3.40;;
49610;SDS011;35515;48.766;9.176;2023-01-10T09:52:45;9.48;;;3.25;;
49610;SDS011;35515;48.766;9.176;2023-01-10T09:55:16;5.60;;;2.80;;
49610;SDS011;35515;48.766;9.176;2023-01-10T09:57:48;8.50;;;3.50;;
49610;SDS011;35515;48.766;9.176;2023-01-10T10:00:18;10.13;;;3.10;;
49610;SDS011;35515;48.766;9.176;2023-01-10T10:02:50;6.50;;;3.13;;
49610;SDS011;35515;48.766;9.176;2023-01-10T10:05:19;10.85;;;4.45;;
49610;SDS011;35515;48.766;9.176;2023-01-10T10:07:50;5.57;;;2.85;;
49610;SDS011;35515;48.766;9.176;2023-01-10T10:10:21;6.20;;;2.97;;
49610;SDS011;35515;48.766;9.176;2023-01-10T10:12:53;10.75;;;3.28;;
49610;SDS011;35515;48.766;9.176;2023-01-10T10:15:31;7.28;;;2.72;;
49610;SDS011;35515;48.766;9.176;2023-01-10T10:18:09;6.05;;;2.60;;
49610;SDS011;35515;48.766;9.176;2023-01-10T10:20:47;7.68;;;3.17;;
49610;SDS011;35515;48.766;9.176;2023-01-10T10:23:25;7.13;;;2.90;;
49610;SDS011;35515;48.766;9.176;2023-01-10T10:26:01;8.15;;;3.13;;
49610;SDS011;35515;48.766;9.176;2023-01-10T10:31:38;8.68;;;2.70;;
49610;SDS011;35515;48.766;9.176;2023-01-10T10:34:19;4.32;;;2.60;;
49610;SDS011;35515;48.766;9.176;2023-01-10T10:36:50;9.35;;;2.78;;
49610;SDS011;35515;48.766;9.176;2023-01-10T10:39:21;8.85;;;3.30;;
49610;SDS011;35515;48.766;9.176;2023-01-10T10:41:54;7.70;;;2.65;;
49610;SDS011;35515;48.766;9.176;2023-01-10T10:44:32;4.10;;;2.17;;
49610;SDS011;35515;48.766;9.176;2023-01-10T10:47:08;8.00;;;2.50;;
49610;SDS011;35515;48.766;9.176;2023-01-10T10:49:42;6.68;;;2.30;;
49610;SDS011;35515;48.766;9.176;2023-01-10T10:52:12;4.60;;;2.57;;
49610;SDS011;35515;48.766;9.176;2023-01-10T10:54:44;7.00;;;2.67;;
49610;SDS011;35515;48.766;9.176;2023-01-10T10:57:11;7.80;;;2.72;;
49610;SDS011;35515;48.766;9.176;2023-01-10T10:59:38;9.95;;;2.65;;
49610;SDS011;35515;48.766;9.176;2023-01-10T11:02:11;4.60;;;1.90;;
49610;SDS011;35515;48.766;9.176;2023-01-10T11:04:47;4.57;;;2.40;;
49610;SDS011;35515;48.766;9.176;2023-01-10T11:07:16;4.72;;;2.28;;
49610;SDS011;35515;48.766;9.176;2023-01-10T11:09:44;11.73;;;2.75;;
49610;SDS011;35515;48.766;9.176;2023-01-10T11:12:16;8.87;;;2.63;;
49610;SDS011;35515;48.766;9.176;2023-01-10T11:14:45;4.50;;;2.28;;
49610;SDS011;35515;48.766;9.176;2023-01-10T11:17:16;8.18;;;2.25;;
49610;SDS011;35515;48.766;9.176;2023-01-10T11:19:54;6.95;;;2.40;;
49610;SDS011;35515;48.766;9.176;2023-01-10T11:22:25;7.65;;;2.40;;
49610;SDS011;35515;48.766;9.176;2023-01-10T11:24:54;7.30;;;2.28;;
49610;SDS011;35515;48.766;9.176;2023-01-10T11:27:24;9.05;;;3.00;;
49610;SDS011;35515;48.766;9.176;2023-01-10T11:29:55;5.80;;;2.55;;
49610;SDS011;35515;48.766;9.176;2023-01-10T11:32:28;9.50;;;2.25;;
49610;SDS011;35515;48.766;9.176;2023-01-10T11:35:00;5.68;;;2.08;;
49610;SDS011;35515;48.766;9.176;2023-01-10T11:37:29;5.80;;;2.83;;
49610;SDS011;35515;48.766;9.176;2023-01-10T11:42:51;6.05;;;2.13;;
49610;SDS011;35515;48.766;9.176;2023-01-10T11:45:21;7.22;;;2.25;;
49610;SDS011;35515;48.766;9.176;2023-01-10T11:47:50;5.90;;;1.90;;
49610;SDS011;35515;48.766;9.176;2023-01-10T11:50:21;5.82;;;1.80;;
49610;SDS011;35515;48.766;9.176;2023-01-10T11:52:51;7.28;;;3.10;;
49610;SDS011;35515;48.766;9.176;2023-01-10T11:55:18;6.30;;;2.08;;
49610;SDS011;35515;48.766;9.176;2023-01-10T11:57:52;6.60;;;2.40;;
49610;SDS011;35515;48.766;9.176;2023-01-10T12:00:28;7.25;;;2.08;;
49610;SDS011;35515;48.766;9.176;2023-01-10T12:02:58;9.05;;;2.70;;
49610;SDS011;35515;48.766;9.176;2023-01-10T12:05:26;4.65;;;2.58;;
49610;SDS011;35515;48.766;9.176;2023-01-10T12:07:54;7.70;;;2.45;;
49610;SDS011;35515;48.766;9.176;2023-01-10T12:10:23;7.50;;;2.33;;
49610;SDS011;35515;48.766;9.176;2023-01-10T12:12:52;6.63;;;2.30;;
49610;SDS011;35515;48.766;9.176;2023-01-10T12:15:22;9.68;;;2.15;;
49610;SDS011;35515;48.766;9.176;2023-01-10T12:17:50;6.47;;;3.03;;
49610;SDS011;35515;48.766;9.176;2023-01-10T12:20:19;8.25;;;2.60;;
49610;SDS011;35515;48.766;9.176;2023-01-10T12:22:50;4.78;;;2.10;;
49610;SDS011;35515;48.766;9.176;2023-01-10T12:25:20;4.80;;;2.00;;
49610;SDS011;35515;48.766;9.176;2023-01-10T12:27:49;4.72;;;2.13;;
49610;SDS011;35515;48.766;9.176;2023-01-10T12:30:18;6.32;;;2.60;;
49610;SDS011;35515;48.766;9.176;2023-01-10T12:32:50;7.15;;;2.78;;
49610;SDS011;35515;48.766;9.176;2023-01-10T12:35:21;8.07;;;2.45;;
49610;SDS011;35515;48.766;9.176;2023-01-10T12:38:01;5.55;;;1.95;;
49610;SDS011;35515;48.766;9.176;2023-01-10T12:40:35;6.85;;;2.28;;
49610;SDS011;35515;48.766;9.176;2023-01-10T12:43:10;4.75;;;1.80;;
49610;SDS011;35515;48.766;9.176;2023-01-10T12:45:59;7.15;;;2.13;;
49610;SDS011;35515;48.766;9.176;2023-01-10T12:48:33;6.38;;;2.20;;
49610;SDS011;35515;48.766;9.176;2023-01-10T12:51:11;9.07;;;2.00;;
49610;SDS011;35515;48.766;9.176;2023-01-10T12:53:44;7.97;;;2.10;;
49610;SDS011;35515;48.766;9.176;2023-01-10T12:56:14;11.18;;;2.13;;
49610;SDS011;35515;48.766;9.176;2023-01-10T12:58:43;9.80;;;2.42;;
49610;SDS011;35515;48.766;9.176;2023-01-10T13:01:13;5.88;;;1.92;;
49610;SDS011;35515;48.766;9.176;2023-01-10T13:03:42;4.40;;;1.63;;
49610;SDS011;35515;48.766;9.176;2023-01-10T13:06:12;5.22;;;1.70;;
49610;SDS011;35515;48.766;9.176;2023-01-10T13:08:47;5.55;;;2.92;;
49610;SDS011;35515;48.766;9.176;2023-01-10T13:11:16;6.68;;;2.17;;
49610;SDS011;35515;48.766;9.176;2023-01-10T13:13:47;3.10;;;1.97;;
49610;SDS011;35515;48.766;9.176;2023-01-10T13:16:23;8.95;;;2.00;;
49610;SDS011;35515;48.766;9.176;2023-01-10T13:18:57;10.00;;;2.40;;
49610;SDS011;35515;48.766;9.176;2023-01-10T13:21:25;5.03;;;1.90;;
49610;SDS011;35515;48.766;9.176;2023-01-10T13:23:56;7.20;;;2.42;;
49610;SDS011;35515;48.766;9.176;2023-01-10T13:26:25;5.88;;;1.80;;
49610;SDS011;35515;48.766;9.176;2023-01-10T13:28:53;6.47;;;2.22;;
49610;SDS011;35515;48.766;9.176;2023-01-10T13:31:21;6.22;;;1.85;;
49610;SDS011;35515;48.766;9.176;2023-01-10T13:33:51;10.20;;;2.45;;
49610;SDS011;35515;48.766;9.176;2023-01-10T13:36:20;4.28;;;1.80;;
49610;SDS011;35515;48.766;9.176;2023-01-10T13:38:50;9.27;;;2.50;;
49610;SDS011;35515;48.766;9.176;2023-01-10T13:41:21;4.75;;;1.90;;
49610;SDS011;35515;48.766;9.176;2023-01-10T13:44:06;7.28;;;2.22;;
49610;SDS011;35515;48.766;9.176;2023-01-10T13:46:38;9.05;;;2.50;;
49610;SDS011;35515;48.766;9.176;2023-01-10T13:49:36;5.13;;;1.73;;
49610;SDS011;35515;48.766;9.176;2023-01-10T13:52:19;6.35;;;2.10;;
49610;SDS011;35515;48.766;9.176;2023-01-10T13:54:58;7.38;;;2.10;;
49610;SDS011;35515;48.766;9.176;2023-01-10T14:00:25;10.95;;;2.53;;
49610;SDS011;35515;48.766;9.176;2023-01-10T14:03:41;5.43;;;2.35;;
49610;SDS011;35515;48.766;9.176;2023-01-10T14:06:11;7.18;;;2.42;;
49610;SDS011;35515;48.766;9.176;2023-01-10T14:08:46;5.55;;;2.17;;
49610;SDS011;35515;48.766;9.176;2023-01-10T14:11:15;6.28;;;2.40;;
49610;SDS011;35515;48.766;9.176;2023-01-10T14:13:46;5.25;;;2.30;;
49610;SDS011;35515;48.766;9.176;2023-01-10T14:19:03;6.78;;;2.15;;
49610;SDS011;35515;48.766;9.176;2023-01-10T14:21:44;6.18;;;2.33;;
49610;SDS011;35515;48.766;9.176;2023-01-10T14:24:19;7.32;;;2.05;;
49610;SDS011;35515;48.766;9.176;2023-01-10T14:26:50;5.55;;;1.83;;
49610;SDS011;35515;48.766;9.176;2023-01-10T14:29:20;5.55;;;1.75;;
49610;SDS011;35515;48.766;9.176;2023-01-10T14:31:47;6.88;;;1.75;;
49610;SDS011;35515;48.766;9.176;2023-01-10T14:34:18;5.47;;;1.95;;
49610;SDS011;35515;48.766;9.176;2023-01-10T14:36:49;8.20;;;1.95;;
49610;SDS011;35515;48.766;9.176;2023-01-10T14:39:20;7.78;;;2.10;;
49610;SDS011;35515;48.766;9.176;2023-01-10T14:41:48;4.93;;;1.80;;
49610;SDS011;35515;48.766;9.176;2023-01-10T14:44:18;6.93;;;1.75;;
49610;SDS011;35515;48.766;9.176;2023-01-10T14:46:53;3.88;;;1.70;;
49610;SDS011;35515;48.766;9.176;2023-01-10T14:49:22;4.88;;;2.05;;
49610;SDS011;35515;48.766;9.176;2023-01-10T14:51:50;6.97;;;1.90;;
49610;SDS011;35515;48.766;9.176;2023-01-10T14:54:18;4.95;;;2.30;;
49610;SDS011;35515;48.766;9.176;2023-01-10T14:56:48;4.93;;;2.08;;
49610;SDS011;35515;48.766;9.176;2023-01-10T14:59:15;4.57;;;1.88;;
49610;SDS011;35515;48.766;9.176;2023-01-10T15:01:47;5.72;;;1.98;;
49610;SDS011;35515;48.766;9.176;2023-01-10T15:06:49;5.75;;;2.25;;
49610;SDS011;35515;48.766;9.176;2023-01-10T15:09:17;6.50;;;1.92;;
49610;SDS011;35515;48.766;9.176;2023-01-10T15:11:44;7.13;;;2.47;;
49610;SDS011;35515;48.766;9.176;2023-01-10T15:14:12;8.15;;;2.15;;
49610;SDS011;35515;48.766;9.176;2023-01-10T15:16:42;7.47;;;2.78;;
49610;SDS011;35515;48.766;9.176;2023-01-10T15:19:12;6.53;;;2.15;;